Lytton, IA (50561)

3:07 PM CST on March 03, 2015 (GMT -0600)
IADOT Rockwell City | Change Station
CLOSE
Current Station
Personal Weather Station
Location: Rockwell City, IA
Elevation: 1266 ft
Nearby Weather Stations

Elev 1266 ft 42.45 °N, 94.67 °W | Updated 45 minutes ago

Overcast
Overcast
29 °F
Feels Like 14 °F
N
28
Wind Variable Wind from NNW
Gusts 35.0 mph

Today
High -- | Low -- °F
--% Chance of Precip.
Yesterday
High -- | Low -- °F
Precip. -- in
6:51 AM 6:11 PM
Waxing Gibbous, 97% visible
Pressure 29.85 in
Visibility 10.0 miles
Clouds Overcast 2200 ft
Windchill 14 °F
Dew Point 20 °F
Humidity 71%
Rainfall -999.00 in
Snow Depth Not available.
UV 1 out of 12
Pollen .50 out of 12
Air Quality Not available.
Flu Activity Not available.
METAR KSLB 032055Z AUTO 33023G29KT 10SM -UP OVC022 M04/M08 A2985 RMK AO2

More Conditions Fewer Conditions

Pressure 29.85 in
Visibility 10.0 miles
Clouds Overcast 2200 ft
Windchill 14 °F
Dew Point 20 °F
Humidity 71%
Rainfall -999.00 in
Snow Depth Not available.
UV 1 out of 12
Pollen .50 out of 12
Air Quality Not available.
Flu Activity Not available.
METAR KSLB 032055Z AUTO 33023G29KT 10SM -UP OVC022 M04/M08 A2985 RMK AO2

More Conditions Fewer Conditions

10-Day Weather Forecast

Almanac

Astronomy

Mar. 03, 2015 Rise Set
Actual Time
Civil Twilight
Nautical Twilight
Astronomical Twilight
Moon
Length of Visible Light
Length of Day
Tomorrow will be .
, % of the Moon is Illuminated

Today's Extremes

State Highs State Lows

Community

WunderPhotos

Upload Photos

1,802,254 photos uploaded!

WunderBlogs® & News

Nearby

Air Quality

  Air Quality AQ Index Pollutant
Not available.

Snow Depth

Station Depth Elevation

Earthquake Activity

City Distance Mag. Time & Date
Minimum magnitude displayed is 2.5.

Coastal Water Temperatures

Place Temperature

Nearby Weather Stations